sensor_id;sensor_type;location;lat;lon;timestamp;P1;durP1;ratioP1;P2;durP2;ratioP2
1224;SDS011;602;48.000;7.840;2023-06-22T00:01:15;8.60;;;4.03;;
1224;SDS011;602;48.000;7.840;2023-06-22T00:03:42;4.27;;;3.87;;
1224;SDS011;602;48.000;7.840;2023-06-22T00:06:09;4.77;;;3.73;;
1224;SDS011;602;48.000;7.840;2023-06-22T00:08:37;3.43;;;3.00;;
1224;SDS011;602;48.000;7.840;2023-06-22T00:11:04;7.00;;;3.43;;
1224;SDS011;602;48.000;7.840;2023-06-22T00:13:31;3.97;;;3.57;;
1224;SDS011;602;48.000;7.840;2023-06-22T00:15:58;3.43;;;3.10;;
1224;SDS011;602;48.000;7.840;2023-06-22T00:18:24;6.70;;;4.77;;
1224;SDS011;602;48.000;7.840;2023-06-22T00:20:53;4.90;;;4.37;;
1224;SDS011;602;48.000;7.840;2023-06-22T00:23:23;6.40;;;4.03;;
1224;SDS011;602;48.000;7.840;2023-06-22T00:25:51;7.30;;;4.30;;
1224;SDS011;602;48.000;7.840;2023-06-22T00:28:18;4.53;;;3.57;;
1224;SDS011;602;48.000;7.840;2023-06-22T00:30:45;6.47;;;4.07;;
1224;SDS011;602;48.000;7.840;2023-06-22T00:33:12;5.97;;;4.50;;
1224;SDS011;602;48.000;7.840;2023-06-22T00:35:41;6.00;;;4.37;;
1224;SDS011;602;48.000;7.840;2023-06-22T00:38:08;3.83;;;3.47;;
1224;SDS011;602;48.000;7.840;2023-06-22T00:40:34;4.03;;;3.63;;
1224;SDS011;602;48.000;7.840;2023-06-22T00:43:03;5.27;;;4.77;;
1224;SDS011;602;48.000;7.840;2023-06-22T00:45:31;4.10;;;3.70;;
1224;SDS011;602;48.000;7.840;2023-06-22T00:47:59;5.07;;;4.57;;
1224;SDS011;602;48.000;7.840;2023-06-22T00:50:26;10.07;;;4.10;;
1224;SDS011;602;48.000;7.840;2023-06-22T00:52:59;5.33;;;4.13;;
1224;SDS011;602;48.000;7.840;2023-06-22T00:55:29;4.57;;;4.00;;
1224;SDS011;602;48.000;7.840;2023-06-22T00:57:56;6.23;;;3.90;;
1224;SDS011;602;48.000;7.840;2023-06-22T01:00:24;5.93;;;4.67;;
1224;SDS011;602;48.000;7.840;2023-06-22T01:02:52;3.93;;;3.50;;
1224;SDS011;602;48.000;7.840;2023-06-22T01:05:19;5.00;;;3.97;;
1224;SDS011;602;48.000;7.840;2023-06-22T01:07:54;7.23;;;4.20;;
1224;SDS011;602;48.000;7.840;2023-06-22T01:10:32;4.13;;;3.77;;
1224;SDS011;602;48.000;7.840;2023-06-22T01:13:06;4.17;;;3.63;;
1224;SDS011;602;48.000;7.840;2023-06-22T01:15:43;4.67;;;3.73;;
1224;SDS011;602;48.000;7.840;2023-06-22T01:18:14;6.80;;;4.10;;
1224;SDS011;602;48.000;7.840;2023-06-22T01:20:44;4.83;;;4.43;;
1224;SDS011;602;48.000;7.840;2023-06-22T01:23:19;4.70;;;4.00;;
1224;SDS011;602;48.000;7.840;2023-06-22T01:25:56;6.17;;;3.83;;
1224;SDS011;602;48.000;7.840;2023-06-22T01:28:43;7.00;;;4.00;;
1224;SDS011;602;48.000;7.840;2023-06-22T01:31:13;3.73;;;3.43;;
1224;SDS011;602;48.000;7.840;2023-06-22T01:33:43;5.87;;;4.47;;
1224;SDS011;602;48.000;7.840;2023-06-22T01:36:12;6.40;;;4.40;;
1224;SDS011;602;48.000;7.840;2023-06-22T01:38:40;8.47;;;4.97;;
1224;SDS011;602;48.000;7.840;2023-06-22T01:41:09;8.00;;;4.10;;
1224;SDS011;602;48.000;7.840;2023-06-22T01:43:37;5.30;;;3.80;;
1224;SDS011;602;48.000;7.840;2023-06-22T01:46:06;9.20;;;3.90;;
1224;SDS011;602;48.000;7.840;2023-06-22T01:48:34;3.60;;;3.30;;
1224;SDS011;602;48.000;7.840;2023-06-22T01:51:01;6.17;;;4.30;;
1224;SDS011;602;48.000;7.840;2023-06-22T01:53:28;4.13;;;3.50;;
1224;SDS011;602;48.000;7.840;2023-06-22T01:55:55;5.10;;;4.60;;
1224;SDS011;602;48.000;7.840;2023-06-22T01:58:23;6.27;;;4.33;;
1224;SDS011;602;48.000;7.840;2023-06-22T02:00:53;7.13;;;3.67;;
1224;SDS011;602;48.000;7.840;2023-06-22T02:03:28;5.17;;;3.57;;
1224;SDS011;602;48.000;7.840;2023-06-22T02:06:03;4.07;;;3.67;;
1224;SDS011;602;48.000;7.840;2023-06-22T02:08:35;4.20;;;3.80;;
1224;SDS011;602;48.000;7.840;2023-06-22T02:11:06;3.37;;;3.07;;
1224;SDS011;602;48.000;7.840;2023-06-22T02:13:35;7.47;;;3.90;;
1224;SDS011;602;48.000;7.840;2023-06-22T02:16:07;5.20;;;4.70;;
1224;SDS011;602;48.000;7.840;2023-06-22T02:18:36;6.50;;;4.03;;
1224;SDS011;602;48.000;7.840;2023-06-22T02:21:05;5.50;;;4.33;;
1224;SDS011;602;48.000;7.840;2023-06-22T02:23:32;6.27;;;4.30;;
1224;SDS011;602;48.000;7.840;2023-06-22T02:26:00;6.60;;;4.80;;
1224;SDS011;602;48.000;7.840;2023-06-22T02:28:27;5.23;;;4.73;;
1224;SDS011;602;48.000;7.840;2023-06-22T02:30:54;5.27;;;4.77;;
1224;SDS011;602;48.000;7.840;2023-06-22T02:33:21;7.07;;;5.10;;
1224;SDS011;602;48.000;7.840;2023-06-22T02:35:49;6.30;;;4.60;;
1224;SDS011;602;48.000;7.840;2023-06-22T02:38:16;4.80;;;4.30;;
1224;SDS011;602;48.000;7.840;2023-06-22T02:40:44;6.10;;;4.57;;
1224;SDS011;602;48.000;7.840;2023-06-22T02:43:11;5.97;;;5.17;;
1224;SDS011;602;48.000;7.840;2023-06-22T02:45:38;6.80;;;5.73;;
1224;SDS011;602;48.000;7.840;2023-06-22T02:48:05;5.40;;;4.60;;
1224;SDS011;602;48.000;7.840;2023-06-22T02:50:32;9.40;;;5.13;;
1224;SDS011;602;48.000;7.840;2023-06-22T02:53:00;6.40;;;4.70;;
1224;SDS011;602;48.000;7.840;2023-06-22T02:55:27;7.50;;;5.70;;
1224;SDS011;602;48.000;7.840;2023-06-22T02:57:54;5.37;;;4.53;;
1224;SDS011;602;48.000;7.840;2023-06-22T03:00:22;8.77;;;6.10;;
1224;SDS011;602;48.000;7.840;2023-06-22T03:02:55;6.27;;;5.67;;
1224;SDS011;602;48.000;7.840;2023-06-22T03:05:23;8.40;;;5.30;;
1224;SDS011;602;48.000;7.840;2023-06-22T03:07:51;6.67;;;5.00;;
1224;SDS011;602;48.000;7.840;2023-06-22T03:10:19;7.90;;;6.70;;
1224;SDS011;602;48.000;7.840;2023-06-22T03:12:46;6.37;;;5.77;;
1224;SDS011;602;48.000;7.840;2023-06-22T03:15:13;6.77;;;5.10;;
1224;SDS011;602;48.000;7.840;2023-06-22T03:17:40;7.70;;;6.77;;
1224;SDS011;602;48.000;7.840;2023-06-22T03:20:07;6.87;;;5.13;;
1224;SDS011;602;48.000;7.840;2023-06-22T03:22:36;6.57;;;5.50;;
1224;SDS011;602;48.000;7.840;2023-06-22T03:25:03;7.27;;;6.03;;
1224;SDS011;602;48.000;7.840;2023-06-22T03:27:36;5.90;;;4.83;;
1224;SDS011;602;48.000;7.840;2023-06-22T03:30:03;6.73;;;5.97;;
1224;SDS011;602;48.000;7.840;2023-06-22T03:32:30;5.20;;;4.73;;
1224;SDS011;602;48.000;7.840;2023-06-22T03:34:57;6.13;;;5.23;;
1224;SDS011;602;48.000;7.840;2023-06-22T03:37:24;7.10;;;5.00;;
1224;SDS011;602;48.000;7.840;2023-06-22T03:39:51;5.37;;;4.50;;
1224;SDS011;602;48.000;7.840;2023-06-22T03:42:18;8.23;;;5.53;;
1224;SDS011;602;48.000;7.840;2023-06-22T03:44:47;6.67;;;5.03;;
1224;SDS011;602;48.000;7.840;2023-06-22T03:47:14;4.13;;;3.77;;
1224;SDS011;602;48.000;7.840;2023-06-22T03:49:41;4.73;;;4.20;;
1224;SDS011;602;48.000;7.840;2023-06-22T03:52:07;6.13;;;3.50;;
1224;SDS011;602;48.000;7.840;2023-06-22T03:54:35;3.57;;;3.17;;
1224;SDS011;602;48.000;7.840;2023-06-22T03:57:02;3.83;;;3.43;;
1224;SDS011;602;48.000;7.840;2023-06-22T03:59:30;4.60;;;3.80;;
1224;SDS011;602;48.000;7.840;2023-06-22T04:01:58;4.33;;;3.80;;
1224;SDS011;602;48.000;7.840;2023-06-22T04:04:25;6.23;;;4.00;;
1224;SDS011;602;48.000;7.840;2023-06-22T04:06:52;5.67;;;4.63;;
1224;SDS011;602;48.000;7.840;2023-06-22T04:09:19;4.60;;;3.37;;
1224;SDS011;602;48.000;7.840;2023-06-22T04:11:47;5.40;;;4.53;;
1224;SDS011;602;48.000;7.840;2023-06-22T04:14:14;5.03;;;3.93;;
1224;SDS011;602;48.000;7.840;2023-06-22T04:16:41;5.30;;;3.63;;
1224;SDS011;602;48.000;7.840;2023-06-22T04:19:09;3.97;;;3.00;;
1224;SDS011;602;48.000;7.840;2023-06-22T04:21:41;3.83;;;3.50;;
1224;SDS011;602;48.000;7.840;2023-06-22T04:24:08;3.93;;;3.50;;
1224;SDS011;602;48.000;7.840;2023-06-22T04:26:35;10.60;;;3.40;;
1224;SDS011;602;48.000;7.840;2023-06-22T04:29:03;3.93;;;3.23;;
1224;SDS011;602;48.000;7.840;2023-06-22T04:31:30;4.13;;;3.33;;
1224;SDS011;602;48.000;7.840;2023-06-22T04:34:01;15.90;;;5.23;;
1224;SDS011;602;48.000;7.840;2023-06-22T04:36:33;4.40;;;3.57;;
1224;SDS011;602;48.000;7.840;2023-06-22T04:39:03;6.73;;;3.57;;
1224;SDS011;602;48.000;7.840;2023-06-22T04:41:30;5.20;;;4.10;;
1224;SDS011;602;48.000;7.840;2023-06-22T04:44:07;5.60;;;3.90;;
1224;SDS011;602;48.000;7.840;2023-06-22T04:46:34;6.47;;;4.73;;
1224;SDS011;602;48.000;7.840;2023-06-22T04:49:03;8.53;;;5.23;;
1224;SDS011;602;48.000;7.840;2023-06-22T04:51:40;7.93;;;3.87;;
1224;SDS011;602;48.000;7.840;2023-06-22T04:54:08;5.90;;;4.67;;
1224;SDS011;602;48.000;7.840;2023-06-22T04:56:35;5.50;;;4.90;;
1224;SDS011;602;48.000;7.840;2023-06-22T04:59:02;4.23;;;3.13;;
1224;SDS011;602;48.000;7.840;2023-06-22T05:01:29;4.80;;;4.40;;
1224;SDS011;602;48.000;7.840;2023-06-22T05:03:57;4.60;;;3.97;;
1224;SDS011;602;48.000;7.840;2023-06-22T05:06:26;5.47;;;3.70;;
1224;SDS011;602;48.000;7.840;2023-06-22T05:08:55;4.70;;;3.90;;
1224;SDS011;602;48.000;7.840;2023-06-22T05:11:23;5.10;;;4.70;;
1224;SDS011;602;48.000;7.840;2023-06-22T05:13:50;5.93;;;3.80;;
1224;SDS011;602;48.000;7.840;2023-06-22T05:16:17;5.07;;;4.37;;
1224;SDS011;602;48.000;7.840;2023-06-22T05:18:49;5.73;;;4.83;;
1224;SDS011;602;48.000;7.840;2023-06-22T05:21:17;10.07;;;6.33;;
1224;SDS011;602;48.000;7.840;2023-06-22T05:23:45;6.77;;;4.83;;
1224;SDS011;602;48.000;7.840;2023-06-22T05:26:13;7.13;;;4.27;;
1224;SDS011;602;48.000;7.840;2023-06-22T05:28:40;5.53;;;4.73;;
1224;SDS011;602;48.000;7.840;2023-06-22T05:31:07;7.73;;;4.70;;
1224;SDS011;602;48.000;7.840;2023-06-22T05:33:34;10.53;;;5.57;;
1224;SDS011;602;48.000;7.840;2023-06-22T05:36:00;6.97;;;5.77;;
1224;SDS011;602;48.000;7.840;2023-06-22T05:38:27;5.63;;;5.10;;
1224;SDS011;602;48.000;7.840;2023-06-22T05:40:54;8.60;;;5.60;;
1224;SDS011;602;48.000;7.840;2023-06-22T05:43:23;13.63;;;4.77;;
1224;SDS011;602;48.000;7.840;2023-06-22T05:45:49;7.00;;;5.80;;
1224;SDS011;602;48.000;7.840;2023-06-22T05:48:16;6.60;;;4.83;;
1224;SDS011;602;48.000;7.840;2023-06-22T05:50:43;5.40;;;4.90;;
1224;SDS011;602;48.000;7.840;2023-06-22T05:53:10;7.13;;;5.10;;
1224;SDS011;602;48.000;7.840;2023-06-22T05:55:37;7.67;;;5.30;;
1224;SDS011;602;48.000;7.840;2023-06-22T05:58:04;4.60;;;3.73;;
1224;SDS011;602;48.000;7.840;2023-06-22T06:00:32;7.90;;;5.43;;
1224;SDS011;602;48.000;7.840;2023-06-22T06:02:59;8.43;;;4.80;;
1224;SDS011;602;48.000;7.840;2023-06-22T06:05:28;8.00;;;5.80;;
1224;SDS011;602;48.000;7.840;2023-06-22T06:07:55;6.20;;;4.70;;
1224;SDS011;602;48.000;7.840;2023-06-22T06:10:22;8.33;;;4.90;;
1224;SDS011;602;48.000;7.840;2023-06-22T06:12:50;5.90;;;5.10;;
1224;SDS011;602;48.000;7.840;2023-06-22T06:15:17;6.57;;;5.53;;
1224;SDS011;602;48.000;7.840;2023-06-22T06:17:48;6.23;;;5.00;;
1224;SDS011;602;48.000;7.840;2023-06-22T06:20:17;13.43;;;5.97;;
1224;SDS011;602;48.000;7.840;2023-06-22T06:22:45;5.27;;;4.77;;
1224;SDS011;602;48.000;7.840;2023-06-22T06:25:12;7.80;;;6.23;;
1224;SDS011;602;48.000;7.840;2023-06-22T06:27:41;10.90;;;5.63;;
1224;SDS011;602;48.000;7.840;2023-06-22T06:30:08;12.77;;;5.53;;
1224;SDS011;602;48.000;7.840;2023-06-22T06:32:36;5.50;;;4.73;;
1224;SDS011;602;48.000;7.840;2023-06-22T06:35:05;6.97;;;5.77;;
1224;SDS011;602;48.000;7.840;2023-06-22T06:37:34;8.30;;;7.50;;
1224;SDS011;602;48.000;7.840;2023-06-22T06:40:03;6.90;;;6.20;;
1224;SDS011;602;48.000;7.840;2023-06-22T06:42:33;9.87;;;7.43;;
1224;SDS011;602;48.000;7.840;2023-06-22T06:45:00;12.17;;;6.57;;
1224;SDS011;602;48.000;7.840;2023-06-22T06:47:26;8.00;;;6.30;;
1224;SDS011;602;48.000;7.840;2023-06-22T06:49:53;16.00;;;7.17;;
1224;SDS011;602;48.000;7.840;2023-06-22T06:52:22;8.57;;;7.03;;
1224;SDS011;602;48.000;7.840;2023-06-22T06:54:49;8.17;;;5.83;;
1224;SDS011;602;48.000;7.840;2023-06-22T06:57:16;14.40;;;6.87;;
1224;SDS011;602;48.000;7.840;2023-06-22T06:59:45;7.07;;;6.00;;
1224;SDS011;602;48.000;7.840;2023-06-22T07:02:12;6.07;;;5.27;;
1224;SDS011;602;48.000;7.840;2023-06-22T07:04:39;7.67;;;5.23;;
1224;SDS011;602;48.000;7.840;2023-06-22T07:07:06;6.57;;;5.23;;
1224;SDS011;602;48.000;7.840;2023-06-22T07:09:34;5.73;;;5.13;;
1224;SDS011;602;48.000;7.840;2023-06-22T07:12:01;6.17;;;4.90;;
1224;SDS011;602;48.000;7.840;2023-06-22T07:14:28;7.03;;;5.03;;
1224;SDS011;602;48.000;7.840;2023-06-22T07:16:56;6.50;;;5.40;;
1224;SDS011;602;48.000;7.840;2023-06-22T07:19:26;6.63;;;5.97;;
1224;SDS011;602;48.000;7.840;2023-06-22T07:21:54;5.87;;;4.90;;
1224;SDS011;602;48.000;7.840;2023-06-22T07:24:21;4.53;;;3.70;;
1224;SDS011;602;48.000;7.840;2023-06-22T07:26:49;8.60;;;4.77;;
1224;SDS011;602;48.000;7.840;2023-06-22T07:29:17;4.47;;;4.00;;
1224;SDS011;602;48.000;7.840;2023-06-22T07:31:45;5.07;;;4.60;;
1224;SDS011;602;48.000;7.840;2023-06-22T07:34:11;4.87;;;4.33;;
1224;SDS011;602;48.000;7.840;2023-06-22T07:36:38;5.33;;;4.40;;
1224;SDS011;602;48.000;7.840;2023-06-22T07:39:05;6.43;;;4.70;;
1224;SDS011;602;48.000;7.840;2023-06-22T07:41:32;6.47;;;5.07;;
1224;SDS011;602;48.000;7.840;2023-06-22T07:44:03;10.90;;;5.47;;
1224;SDS011;602;48.000;7.840;2023-06-22T07:46:31;6.70;;;5.30;;
1224;SDS011;602;48.000;7.840;2023-06-22T07:48:58;5.60;;;5.03;;
1224;SDS011;602;48.000;7.840;2023-06-22T07:51:26;4.90;;;4.40;;
1224;SDS011;602;48.000;7.840;2023-06-22T07:53:53;7.90;;;5.77;;
1224;SDS011;602;48.000;7.840;2023-06-22T07:56:20;6.57;;;5.17;;
1224;SDS011;602;48.000;7.840;2023-06-22T07:58:47;6.67;;;6.00;;
1224;SDS011;602;48.000;7.840;2023-06-22T08:01:15;6.20;;;4.90;;
1224;SDS011;602;48.000;7.840;2023-06-22T08:03:45;7.30;;;5.67;;
1224;SDS011;602;48.000;7.840;2023-06-22T08:06:13;8.00;;;5.30;;
1224;SDS011;602;48.000;7.840;2023-06-22T08:08:40;8.40;;;5.50;;
1224;SDS011;602;48.000;7.840;2023-06-22T08:11:07;6.20;;;4.60;;
1224;SDS011;602;48.000;7.840;2023-06-22T08:13:34;7.10;;;5.50;;
1224;SDS011;602;48.000;7.840;2023-06-22T08:16:01;5.93;;;5.30;;
1224;SDS011;602;48.000;7.840;2023-06-22T08:18:29;5.70;;;5.17;;
1224;SDS011;602;48.000;7.840;2023-06-22T08:20:56;7.60;;;4.37;;
1224;SDS011;602;48.000;7.840;2023-06-22T08:23:23;6.87;;;4.87;;
1224;SDS011;602;48.000;7.840;2023-06-22T08:25:50;5.23;;;4.33;;
1224;SDS011;602;48.000;7.840;2023-06-22T08:28:17;6.27;;;4.57;;
1224;SDS011;602;48.000;7.840;2023-06-22T08:30:44;6.43;;;4.50;;
1224;SDS011;602;48.000;7.840;2023-06-22T08:33:11;6.67;;;4.23;;
1224;SDS011;602;48.000;7.840;2023-06-22T08:35:39;4.20;;;3.70;;
1224;SDS011;602;48.000;7.840;2023-06-22T08:38:06;3.37;;;3.07;;
1224;SDS011;602;48.000;7.840;2023-06-22T08:40:33;5.23;;;4.73;;
1224;SDS011;602;48.000;7.840;2023-06-22T08:43:00;4.70;;;3.87;;
1224;SDS011;602;48.000;7.840;2023-06-22T08:45:27;3.83;;;3.50;;
1224;SDS011;602;48.000;7.840;2023-06-22T08:47:54;4.07;;;3.70;;
1224;SDS011;602;48.000;7.840;2023-06-22T08:50:21;4.63;;;4.00;;
1224;SDS011;602;48.000;7.840;2023-06-22T08:52:49;8.00;;;3.80;;
1224;SDS011;602;48.000;7.840;2023-06-22T08:55:16;6.43;;;4.83;;
1224;SDS011;602;48.000;7.840;2023-06-22T08:57:43;3.70;;;3.23;;
1224;SDS011;602;48.000;7.840;2023-06-22T09:00:10;4.80;;;3.93;;
1224;SDS011;602;48.000;7.840;2023-06-22T09:02:42;8.97;;;4.80;;
1224;SDS011;602;48.000;7.840;2023-06-22T09:05:09;6.53;;;4.60;;
1224;SDS011;602;48.000;7.840;2023-06-22T09:07:36;6.63;;;4.30;;
1224;SDS011;602;48.000;7.840;2023-06-22T09:10:05;4.97;;;4.50;;
1224;SDS011;602;48.000;7.840;2023-06-22T09:12:33;5.47;;;4.00;;
1224;SDS011;602;48.000;7.840;2023-06-22T09:15:02;10.70;;;4.43;;
1224;SDS011;602;48.000;7.840;2023-06-22T09:17:29;5.47;;;4.50;;
1224;SDS011;602;48.000;7.840;2023-06-22T09:19:56;6.70;;;4.60;;
1224;SDS011;602;48.000;7.840;2023-06-22T09:22:23;6.10;;;4.67;;
1224;SDS011;602;48.000;7.840;2023-06-22T09:24:54;5.73;;;4.17;;
1224;SDS011;602;48.000;7.840;2023-06-22T09:27:22;5.77;;;4.27;;
1224;SDS011;602;48.000;7.840;2023-06-22T09:29:49;4.70;;;4.27;;
1224;SDS011;602;48.000;7.840;2023-06-22T09:32:16;5.33;;;4.83;;
1224;SDS011;602;48.000;7.840;2023-06-22T09:34:43;4.30;;;3.67;;
1224;SDS011;602;48.000;7.840;2023-06-22T09:37:10;5.17;;;4.03;;
1224;SDS011;602;48.000;7.840;2023-06-22T09:39:36;5.03;;;4.40;;
1224;SDS011;602;48.000;7.840;2023-06-22T09:42:04;7.97;;;4.27;;
1224;SDS011;602;48.000;7.840;2023-06-22T09:44:33;8.70;;;3.93;;
1224;SDS011;602;48.000;7.840;2023-06-22T09:46:59;5.23;;;3.90;;
1224;SDS011;602;48.000;7.840;2023-06-22T09:49:26;6.20;;;4.57;;
1224;SDS011;602;48.000;7.840;2023-06-22T09:51:53;5.70;;;3.93;;
1224;SDS011;602;48.000;7.840;2023-06-22T09:54:20;5.60;;;4.60;;
1224;SDS011;602;48.000;7.840;2023-06-22T09:56:47;5.07;;;4.17;;
1224;SDS011;602;48.000;7.840;2023-06-22T09:59:14;5.60;;;5.07;;
1224;SDS011;602;48.000;7.840;2023-06-22T10:01:42;5.53;;;5.07;;
1224;SDS011;602;48.000;7.840;2023-06-22T10:04:09;4.87;;;4.20;;
1224;SDS011;602;48.000;7.840;2023-06-22T10:06:36;5.40;;;4.90;;
1224;SDS011;602;48.000;7.840;2023-06-22T10:09:05;5.57;;;4.87;;
1224;SDS011;602;48.000;7.840;2023-06-22T10:11:33;7.97;;;4.47;;
1224;SDS011;602;48.000;7.840;2023-06-22T10:14:00;6.40;;;4.73;;
1224;SDS011;602;48.000;7.840;2023-06-22T10:16:30;5.77;;;4.37;;
1224;SDS011;602;48.000;7.840;2023-06-22T10:18:59;5.10;;;4.70;;
1224;SDS011;602;48.000;7.840;2023-06-22T10:21:25;6.27;;;4.80;;
1224;SDS011;602;48.000;7.840;2023-06-22T10:23:53;5.97;;;4.60;;
1224;SDS011;602;48.000;7.840;2023-06-22T10:26:20;5.23;;;4.83;;
1224;SDS011;602;48.000;7.840;2023-06-22T10:28:47;4.37;;;4.07;;
1224;SDS011;602;48.000;7.840;2023-06-22T10:31:14;4.47;;;4.07;;
1224;SDS011;602;48.000;7.840;2023-06-22T10:33:41;5.13;;;4.63;;
1224;SDS011;602;48.000;7.840;2023-06-22T10:36:10;6.03;;;4.40;;
1224;SDS011;602;48.000;7.840;2023-06-22T10:38:37;4.33;;;3.93;;
1224;SDS011;602;48.000;7.840;2023-06-22T10:41:04;5.60;;;4.57;;
1224;SDS011;602;48.000;7.840;2023-06-22T10:43:31;7.87;;;5.17;;
1224;SDS011;602;48.000;7.840;2023-06-22T10:45:58;6.63;;;5.07;;
1224;SDS011;602;48.000;7.840;2023-06-22T10:48:25;5.30;;;4.50;;
1224;SDS011;602;48.000;7.840;2023-06-22T10:50:52;4.47;;;4.03;;
1224;SDS011;602;48.000;7.840;2023-06-22T10:53:21;5.47;;;4.97;;
1224;SDS011;602;48.000;7.840;2023-06-22T10:55:47;5.87;;;4.17;;
1224;SDS011;602;48.000;7.840;2023-06-22T10:58:14;4.20;;;3.80;;
1224;SDS011;602;48.000;7.840;2023-06-22T11:00:41;5.90;;;4.27;;
1224;SDS011;602;48.000;7.840;2023-06-22T11:03:08;4.70;;;4.20;;
1224;SDS011;602;48.000;7.840;2023-06-22T11:05:35;5.50;;;4.80;;
1224;SDS011;602;48.000;7.840;2023-06-22T11:08:02;5.80;;;5.30;;
1224;SDS011;602;48.000;7.840;2023-06-22T11:10:30;5.67;;;5.03;;
1224;SDS011;602;48.000;7.840;2023-06-22T11:12:57;7.30;;;5.53;;
1224;SDS011;602;48.000;7.840;2023-06-22T11:15:24;4.93;;;4.40;;
1224;SDS011;602;48.000;7.840;2023-06-22T11:17:50;6.30;;;5.40;;
1224;SDS011;602;48.000;7.840;2023-06-22T11:20:17;5.70;;;5.00;;
1224;SDS011;602;48.000;7.840;2023-06-22T11:22:44;5.53;;;5.03;;
1224;SDS011;602;48.000;7.840;2023-06-22T11:25:11;6.10;;;5.40;;
1224;SDS011;602;48.000;7.840;2023-06-22T11:27:42;5.80;;;5.30;;
1224;SDS011;602;48.000;7.840;2023-06-22T11:30:09;4.93;;;4.57;;
1224;SDS011;602;48.000;7.840;2023-06-22T11:32:36;4.90;;;4.50;;
1224;SDS011;602;48.000;7.840;2023-06-22T11:35:03;5.60;;;5.10;;
1224;SDS011;602;48.000;7.840;2023-06-22T11:37:30;4.33;;;4.03;;
1224;SDS011;602;48.000;7.840;2023-06-22T11:39:57;6.17;;;4.80;;
1224;SDS011;602;48.000;7.840;2023-06-22T11:42:24;5.70;;;5.10;;
1224;SDS011;602;48.000;7.840;2023-06-22T11:44:52;7.57;;;5.73;;
1224;SDS011;602;48.000;7.840;2023-06-22T11:47:19;6.17;;;5.57;;
1224;SDS011;602;48.000;7.840;2023-06-22T11:49:46;5.70;;;5.20;;
1224;SDS011;602;48.000;7.840;2023-06-22T11:52:13;5.87;;;5.23;;
1224;SDS011;602;48.000;7.840;2023-06-22T11:54:39;6.00;;;4.90;;
1224;SDS011;602;48.000;7.840;2023-06-22T11:57:06;5.13;;;4.47;;
1224;SDS011;602;48.000;7.840;2023-06-22T11:59:33;5.13;;;4.63;;
1224;SDS011;602;48.000;7.840;2023-06-22T12:02:01;7.03;;;5.40;;
1224;SDS011;602;48.000;7.840;2023-06-22T12:04:30;6.07;;;4.80;;
1224;SDS011;602;48.000;7.840;2023-06-22T12:06:58;9.73;;;6.03;;
1224;SDS011;602;48.000;7.840;2023-06-22T12:09:25;7.87;;;4.40;;
1224;SDS011;602;48.000;7.840;2023-06-22T12:11:51;9.13;;;4.80;;
1224;SDS011;602;48.000;7.840;2023-06-22T12:14:18;6.93;;;5.33;;
1224;SDS011;602;48.000;7.840;2023-06-22T12:16:45;5.20;;;4.70;;
1224;SDS011;602;48.000;7.840;2023-06-22T12:19:13;4.87;;;4.37;;
1224;SDS011;602;48.000;7.840;2023-06-22T12:21:40;5.33;;;4.83;;
1224;SDS011;602;48.000;7.840;2023-06-22T12:24:10;6.40;;;4.97;;
1224;SDS011;602;48.000;7.840;2023-06-22T12:26:37;5.97;;;5.20;;
1224;SDS011;602;48.000;7.840;2023-06-22T12:29:04;7.33;;;5.43;;
1224;SDS011;602;48.000;7.840;2023-06-22T12:31:31;6.80;;;5.03;;
1224;SDS011;602;48.000;7.840;2023-06-22T12:33:57;5.57;;;5.07;;
1224;SDS011;602;48.000;7.840;2023-06-22T12:36:26;8.63;;;5.47;;
1224;SDS011;602;48.000;7.840;2023-06-22T12:38:53;6.90;;;5.03;;
1224;SDS011;602;48.000;7.840;2023-06-22T12:41:20;5.93;;;4.50;;
1224;SDS011;602;48.000;7.840;2023-06-22T12:43:47;9.00;;;4.53;;
1224;SDS011;602;48.000;7.840;2023-06-22T12:46:13;5.23;;;4.47;;
1224;SDS011;602;48.000;7.840;2023-06-22T12:48:40;4.80;;;4.30;;
1224;SDS011;602;48.000;7.840;2023-06-22T12:51:07;8.10;;;4.80;;
1224;SDS011;602;48.000;7.840;2023-06-22T12:53:36;5.53;;;5.10;;
1224;SDS011;602;48.000;7.840;2023-06-22T12:56:03;5.40;;;4.30;;
1224;SDS011;602;48.000;7.840;2023-06-22T12:58:30;4.23;;;3.83;;
1224;SDS011;602;48.000;7.840;2023-06-22T13:00:57;4.40;;;4.00;;
1224;SDS011;602;48.000;7.840;2023-06-22T13:03:24;8.97;;;4.90;;
1224;SDS011;602;48.000;7.840;2023-06-22T13:05:52;5.73;;;3.90;;
1224;SDS011;602;48.000;7.840;2023-06-22T13:08:19;4.00;;;3.67;;
1224;SDS011;602;48.000;7.840;2023-06-22T13:10:48;8.43;;;4.60;;
1224;SDS011;602;48.000;7.840;2023-06-22T13:13:15;3.23;;;2.93;;
1224;SDS011;602;48.000;7.840;2023-06-22T13:15:41;5.80;;;3.67;;
1224;SDS011;602;48.000;7.840;2023-06-22T13:18:08;6.83;;;3.67;;
1224;SDS011;602;48.000;7.840;2023-06-22T13:20:35;5.13;;;3.87;;
1224;SDS011;602;48.000;7.840;2023-06-22T13:23:02;4.10;;;3.70;;
1224;SDS011;602;48.000;7.840;2023-06-22T13:25:29;4.67;;;3.63;;
1224;SDS011;602;48.000;7.840;2023-06-22T13:27:57;5.43;;;3.90;;
1224;SDS011;602;48.000;7.840;2023-06-22T13:30:24;7.10;;;4.00;;
1224;SDS011;602;48.000;7.840;2023-06-22T13:32:50;6.23;;;3.87;;
1224;SDS011;602;48.000;7.840;2023-06-22T13:35:17;11.93;;;4.63;;
1224;SDS011;602;48.000;7.840;2023-06-22T13:37:44;3.53;;;3.23;;
1224;SDS011;602;48.000;7.840;2023-06-22T13:40:11;7.83;;;3.33;;
1224;SDS011;602;48.000;7.840;2023-06-22T13:42:38;3.20;;;2.73;;
1224;SDS011;602;48.000;7.840;2023-06-22T13:45:07;3.60;;;3.27;;
1224;SDS011;602;48.000;7.840;2023-06-22T13:47:34;10.23;;;4.33;;
1224;SDS011;602;48.000;7.840;2023-06-22T13:50:01;5.73;;;5.23;;
1224;SDS011;602;48.000;7.840;2023-06-22T13:52:28;5.17;;;4.37;;
1224;SDS011;602;48.000;7.840;2023-06-22T13:54:55;4.17;;;3.77;;
1224;SDS011;602;48.000;7.840;2023-06-22T13:57:22;5.83;;;3.40;;
1224;SDS011;602;48.000;7.840;2023-06-22T13:59:49;5.57;;;3.67;;
1224;SDS011;602;48.000;7.840;2023-06-22T14:02:17;5.40;;;3.83;;
1224;SDS011;602;48.000;7.840;2023-06-22T14:04:44;9.00;;;4.37;;
1224;SDS011;602;48.000;7.840;2023-06-22T14:07:10;10.30;;;3.87;;
1224;SDS011;602;48.000;7.840;2023-06-22T14:09:37;7.70;;;4.07;;
1224;SDS011;602;48.000;7.840;2023-06-22T14:12:04;5.20;;;4.50;;
1224;SDS011;602;48.000;7.840;2023-06-22T14:14:32;5.73;;;3.83;;
1224;SDS011;602;48.000;7.840;2023-06-22T14:16:59;3.93;;;3.53;;
1224;SDS011;602;48.000;7.840;2023-06-22T14:19:28;4.10;;;3.57;;
1224;SDS011;602;48.000;7.840;2023-06-22T14:21:54;3.67;;;2.90;;
1224;SDS011;602;48.000;7.840;2023-06-22T14:24:21;5.13;;;4.13;;
1224;SDS011;602;48.000;7.840;2023-06-22T14:26:48;3.47;;;3.17;;
1224;SDS011;602;48.000;7.840;2023-06-22T14:29:15;4.03;;;3.70;;
1224;SDS011;602;48.000;7.840;2023-06-22T14:31:44;7.77;;;4.40;;
1224;SDS011;602;48.000;7.840;2023-06-22T14:34:11;6.60;;;4.00;;
1224;SDS011;602;48.000;7.840;2023-06-22T14:36:40;5.23;;;3.23;;
1224;SDS011;602;48.000;7.840;2023-06-22T14:39:07;6.73;;;4.33;;
1224;SDS011;602;48.000;7.840;2023-06-22T14:41:34;4.30;;;3.90;;
1224;SDS011;602;48.000;7.840;2023-06-22T14:44:01;7.70;;;4.83;;
1224;SDS011;602;48.000;7.840;2023-06-22T14:46:28;8.90;;;4.00;;
1224;SDS011;602;48.000;7.840;2023-06-22T14:48:55;5.57;;;4.57;;
1224;SDS011;602;48.000;7.840;2023-06-22T14:51:22;6.40;;;4.37;;
1224;SDS011;602;48.000;7.840;2023-06-22T14:53:50;4.23;;;3.83;;
1224;SDS011;602;48.000;7.840;2023-06-22T14:56:17;5.87;;;3.50;;
1224;SDS011;602;48.000;7.840;2023-06-22T14:58:44;4.03;;;3.50;;
1224;SDS011;602;48.000;7.840;2023-06-22T15:01:11;3.67;;;3.30;;
1224;SDS011;602;48.000;7.840;2023-06-22T15:03:40;6.80;;;3.67;;
1224;SDS011;602;48.000;7.840;2023-06-22T15:06:07;4.87;;;3.30;;
1224;SDS011;602;48.000;7.840;2023-06-22T15:08:36;9.03;;;4.33;;
1224;SDS011;602;48.000;7.840;2023-06-22T15:11:05;5.83;;;3.93;;
1224;SDS011;602;48.000;7.840;2023-06-22T15:13:32;10.70;;;4.30;;
1224;SDS011;602;48.000;7.840;2023-06-22T15:15:59;5.77;;;3.40;;
1224;SDS011;602;48.000;7.840;2023-06-22T15:18:26;3.80;;;3.47;;
1224;SDS011;602;48.000;7.840;2023-06-22T15:20:53;4.23;;;3.33;;
1224;SDS011;602;48.000;7.840;2023-06-22T15:23:20;5.50;;;3.40;;
1224;SDS011;602;48.000;7.840;2023-06-22T15:25:46;4.87;;;3.37;;
1224;SDS011;602;48.000;7.840;2023-06-22T15:28:15;7.77;;;3.23;;
1224;SDS011;602;48.000;7.840;2023-06-22T15:30:42;6.20;;;3.50;;
1224;SDS011;602;48.000;7.840;2023-06-22T15:33:09;4.37;;;2.93;;